createdAt,value
2023-02-13T00:00:53.736Z,97467.70
2023-02-13T00:03:23.631Z,97472.37
2023-02-13T00:05:53.610Z,97470.19
2023-02-13T00:08:23.433Z,97468.81
2023-02-13T00:10:53.256Z,97465.27
2023-02-13T00:13:23.270Z,97465.53
2023-02-13T00:16:01.161Z,97462.53
2023-02-13T00:18:34.260Z,97465.83
2023-02-13T00:21:05.594Z,97482.25
2023-02-13T00:23:35.706Z,97490.73
2023-02-13T00:26:07.904Z,97496.50
2023-02-13T00:28:38.846Z,97500.31
2023-02-13T00:31:15.357Z,97508.27
2023-02-13T00:33:46.750Z,97516.48
2023-02-13T00:36:18.862Z,97521.40
2023-02-13T00:38:48.878Z,97522.51
2023-02-13T00:41:18.820Z,97517.03
2023-02-13T00:43:48.828Z,97517.03
2023-02-13T00:46:19.153Z,97514.56
2023-02-13T00:48:49.061Z,97516.48
2023-02-13T00:51:18.986Z,97521.70
2023-02-13T00:53:48.901Z,97534.27
2023-02-13T00:56:18.798Z,97532.91
2023-02-13T00:58:48.716Z,97541.94
2023-02-13T01:01:20.074Z,97536.75
2023-02-13T01:03:50.757Z,97547.70
2023-02-13T01:06:21.001Z,97546.59
2023-02-13T01:08:50.972Z,97549.06
2023-02-13T01:11:22.263Z,97551.80
2023-02-13T01:13:54.751Z,97554.54
2023-02-13T01:16:24.781Z,97561.64
2023-02-13T01:18:54.843Z,97562.19
2023-02-13T01:21:25.276Z,97554.80
2023-02-13T01:23:55.123Z,97549.06
2023-02-13T01:26:25.789Z,97547.95
2023-02-13T01:29:00.716Z,97557.82
2023-02-13T01:31:30.710Z,97549.61
2023-02-13T01:34:00.908Z,97547.39
2023-02-13T01:36:31.079Z,97549.31
2023-02-13T01:39:01.123Z,97551.77
2023-02-13T01:41:30.988Z,97552.87
2023-02-13T01:44:01.939Z,97553.67
2023-02-13T01:46:44.967Z,97556.41
2023-02-13T01:49:19.949Z,97554.78
2023-02-13T01:51:50.529Z,97555.59
2023-02-13T01:54:22.466Z,97556.70
2023-02-13T01:56:56.544Z,97564.06
2023-02-13T01:59:35.342Z,97564.06
2023-02-13T02:02:05.348Z,97563.80
2023-02-13T02:04:35.714Z,97565.16
2023-02-13T02:07:13.921Z,97565.42
2023-02-13T02:09:45.302Z,97569.81
2023-02-13T02:12:29.156Z,97579.13
2023-02-13T02:15:00.058Z,97581.30
2023-02-13T02:17:30.004Z,97582.93
2023-02-13T02:20:24.893Z,97584.59
2023-02-13T02:23:14.050Z,97590.06
2023-02-13T02:26:19.562Z,97592.50
2023-02-13T02:28:58.816Z,97590.31
2023-02-13T02:31:54.043Z,97594.41
2023-02-13T02:34:35.697Z,97593.85
2023-02-13T02:37:08.309Z,97590.85
2023-02-13T02:39:41.725Z,97600.16
2023-02-13T02:42:20.606Z,97602.05
2023-02-13T02:44:56.250Z,97599.05
2023-02-13T02:47:52.110Z,97597.67
2023-02-13T02:50:27.191Z,97605.32
2023-02-13T02:53:17.987Z,97615.17
2023-02-13T02:55:53.381Z,97616.25
2023-02-13T02:58:52.276Z,97622.01
2023-02-13T03:01:43.107Z,97620.89
2023-02-13T03:04:41.771Z,97626.65
2023-02-13T03:07:13.873Z,97624.73
2023-02-13T03:10:15.176Z,97629.64
2023-02-13T03:13:13.747Z,97629.92
2023-02-13T03:16:01.807Z,97630.19
2023-02-13T03:18:51.979Z,97626.66
2023-02-13T03:22:03.314Z,97628.86
2023-02-13T03:24:54.086Z,97624.22
2023-02-13T03:27:53.208Z,97618.47
2023-02-13T03:30:42.260Z,97619.85
2023-02-13T03:33:15.087Z,97622.59
2023-02-13T03:36:38.589Z,97619.05
2023-02-13T03:39:17.535Z,97621.80
2023-02-13T03:42:11.285Z,97616.05
2023-02-13T03:44:57.857Z,97621.78
2023-02-13T03:47:56.440Z,97619.60
2023-02-13T03:50:47.024Z,97607.28
2023-02-13T03:53:38.288Z,97606.98
2023-02-13T03:56:26.936Z,97611.38
2023-02-13T03:59:14.112Z,97611.64
2023-02-13T04:01:52.924Z,97610.56
2023-02-13T04:04:47.294Z,97611.11
2023-02-13T04:07:21.404Z,97613.00
2023-02-13T04:09:50.591Z,97615.20
2023-02-13T04:12:25.980Z,97617.64
2023-02-13T04:15:04.857Z,97608.89
2023-02-13T04:17:38.107Z,97600.97
2023-02-13T04:20:09.214Z,97603.70
2023-02-13T04:22:47.371Z,97599.85
2023-02-13T04:25:18.779Z,97610.52
2023-02-13T04:27:51.600Z,97610.78
2023-02-13T04:30:26.360Z,97616.25
2023-02-13T04:32:56.346Z,97614.62
2023-02-13T04:35:26.451Z,97612.69
2023-02-13T04:37:56.867Z,97605.85
2023-02-13T04:40:27.631Z,97606.14
2023-02-13T04:42:57.758Z,97620.88
2023-02-13T04:45:29.218Z,97624.72
2023-02-13T04:48:01.558Z,97629.92
2023-02-13T04:50:32.926Z,97626.89
2023-02-13T04:53:03.044Z,97622.78
2023-02-13T04:55:33.881Z,97620.33
2023-02-13T04:58:06.358Z,97620.89
2023-02-13T05:00:35.550Z,97610.20
2023-02-13T05:03:12.399Z,97608.57
2023-02-13T05:05:42.700Z,97614.30
2023-02-13T05:08:13.668Z,97609.63
2023-02-13T05:10:43.777Z,97611.27
2023-02-13T05:13:14.119Z,97617.82
2023-02-13T05:15:47.929Z,97622.76
2023-02-13T05:18:17.387Z,97632.84
2023-02-13T05:20:48.717Z,97682.03
2023-02-13T05:23:24.651Z,97691.35
2023-02-13T05:25:54.837Z,97698.17
2023-02-13T05:28:42.355Z,97703.04
2023-02-13T05:31:16.023Z,97709.34
2023-02-13T05:33:46.056Z,97693.17
2023-02-13T05:36:16.097Z,97689.89
2023-02-13T05:38:46.399Z,97694.28
2023-02-13T05:41:16.439Z,97685.52
2023-02-13T05:43:49.404Z,97700.55
2023-02-13T05:46:19.424Z,97695.08
2023-02-13T05:48:49.342Z,97689.59
2023-02-13T05:51:20.983Z,97686.59
2023-02-13T05:53:50.923Z,97677.83
2023-02-13T05:56:23.145Z,97672.91
2023-02-13T05:58:56.336Z,97675.08
2023-02-13T06:01:26.339Z,97668.80
2023-02-13T06:04:00.947Z,97672.08
2023-02-13T06:06:31.001Z,97671.52
2023-02-13T06:09:01.130Z,97682.14
2023-02-13T06:11:31.253Z,97684.34
2023-02-13T06:14:05.009Z,97686.23
2023-02-13T06:16:34.136Z,97681.05
2023-02-13T06:19:04.126Z,97686.49
2023-02-13T06:21:38.993Z,97682.95
2023-02-13T06:24:12.966Z,97689.48
2023-02-13T06:26:45.248Z,97690.82
2023-02-13T06:29:15.236Z,97687.00
2023-02-13T06:31:45.152Z,97686.17
2023-02-13T06:34:15.161Z,97696.80
2023-02-13T06:36:45.059Z,97697.90
2023-02-13T06:39:18.254Z,97692.16
2023-02-13T06:41:48.109Z,97697.33
2023-02-13T06:44:18.240Z,97694.03
2023-02-13T06:46:48.239Z,97697.31
2023-02-13T06:49:18.441Z,97698.13
2023-02-13T06:51:48.464Z,97698.38
2023-02-13T06:54:18.389Z,97700.84
2023-02-13T06:56:49.638Z,97703.01
2023-02-13T06:59:19.600Z,97696.70
2023-02-13T07:01:49.577Z,97698.89
2023-02-13T07:04:19.506Z,97703.78
2023-02-13T07:06:50.812Z,97705.70
2023-02-13T07:09:20.778Z,97707.31
2023-02-13T07:11:51.576Z,97704.04
2023-02-13T07:14:22.313Z,97700.47
2023-02-13T07:16:54.986Z,97699.92
2023-02-13T07:19:24.883Z,97699.36
2023-02-13T07:21:55.043Z,97698.78
2023-02-13T07:24:25.084Z,97698.22
2023-02-13T07:26:55.084Z,97698.22
2023-02-13T07:29:24.918Z,97702.05
2023-02-13T07:31:58.600Z,97699.25
2023-02-13T07:34:28.840Z,97703.90
2023-02-13T07:36:58.780Z,97706.06
2023-02-13T07:39:28.762Z,97715.34
2023-02-13T07:41:58.718Z,97720.50
2023-02-13T07:44:28.823Z,97719.42
2023-02-13T07:46:58.894Z,97719.66
2023-02-13T07:49:28.798Z,97727.31
2023-02-13T07:51:59.633Z,97726.20
2023-02-13T07:54:29.556Z,97731.08
2023-02-13T07:56:59.646Z,97729.45
2023-02-13T07:59:29.822Z,97740.91
2023-02-13T08:01:59.824Z,97732.97
2023-02-13T08:04:29.804Z,97725.57
2023-02-13T08:06:59.830Z,97734.86
2023-02-13T08:09:49.040Z,97735.40
2023-02-13T08:12:18.544Z,97734.83
2023-02-13T08:14:48.518Z,97735.63
2023-02-13T08:17:18.545Z,97737.26
2023-02-13T08:19:48.555Z,97729.59
2023-02-13T08:22:23.181Z,97726.03
2023-02-13T08:24:53.101Z,97727.38
2023-02-13T08:27:27.806Z,97720.28
2023-02-13T08:29:58.080Z,97718.34
2023-02-13T08:32:28.085Z,97718.31
2023-02-13T08:34:58.206Z,97714.22
2023-02-13T08:37:28.257Z,97719.95
2023-02-13T08:39:58.184Z,97703.45
2023-02-13T08:42:28.067Z,97725.39
2023-02-13T08:44:59.716Z,97730.27
2023-02-13T08:47:29.825Z,97733.55
2023-02-13T08:49:59.860Z,97741.16
2023-02-13T08:52:30.312Z,97752.86
2023-02-13T08:55:01.242Z,97758.05
2023-02-13T08:57:31.951Z,97753.13
2023-02-13T09:00:01.897Z,97746.56
2023-02-13T09:02:34.877Z,97752.28
2023-02-13T09:05:05.014Z,97746.25
2023-02-13T09:07:35.138Z,97746.25
2023-02-13T09:10:05.187Z,97740.77
2023-02-13T09:12:35.214Z,97750.05
2023-02-13T09:15:05.641Z,97747.02
2023-02-13T09:17:35.626Z,97749.47
2023-02-13T09:20:08.002Z,97749.16
2023-02-13T09:22:40.896Z,97751.34
2023-02-13T09:25:11.225Z,97749.68
2023-02-13T09:27:41.197Z,97746.92
2023-02-13T09:30:13.904Z,97748.83
2023-02-13T09:32:44.438Z,97753.70
2023-02-13T09:35:15.732Z,97718.64
2023-02-13T09:37:46.793Z,97718.64
2023-02-13T09:40:22.402Z,97736.49
2023-02-13T09:42:52.429Z,97738.64
2023-02-13T09:45:24.667Z,97739.43
2023-02-13T09:47:54.770Z,97751.39
2023-02-13T09:50:28.551Z,97744.30
2023-02-13T09:52:58.872Z,97748.12
2023-02-13T09:55:50.479Z,97741.00
2023-02-13T09:58:46.999Z,97734.70
2023-02-13T10:01:23.867Z,97737.42
2023-02-13T10:04:16.165Z,97736.84
2023-02-13T10:06:52.523Z,97732.48
2023-02-13T10:09:36.969Z,97735.17
2023-02-13T10:12:23.928Z,97740.87
2023-02-13T10:15:16.448Z,97740.05
2023-02-13T10:17:47.305Z,97741.69
2023-02-13T10:20:34.864Z,97738.38
2023-02-13T10:23:16.521Z,97741.89
2023-02-13T10:26:00.687Z,97745.95
2023-02-13T10:28:54.570Z,97751.95
2023-02-13T10:31:25.140Z,97757.94
2023-02-13T10:33:56.999Z,97760.91
2023-02-13T10:36:32.521Z,97757.09
2023-02-13T10:39:06.613Z,97760.36
2023-02-13T10:41:54.446Z,97763.87
2023-02-13T10:44:41.855Z,97772.05
2023-02-13T10:47:33.456Z,97776.37
2023-02-13T10:50:15.135Z,97773.91
2023-02-13T10:52:50.382Z,97773.09
2023-02-13T10:55:41.364Z,97771.97
2023-02-13T10:58:17.284Z,97768.39
2023-02-13T11:00:52.592Z,97771.39
2023-02-13T11:03:28.733Z,97768.63
2023-02-13T11:05:58.893Z,97769.72
2023-02-13T11:08:34.539Z,97768.89
2023-02-13T11:11:04.389Z,97764.50
2023-02-13T11:13:34.566Z,97762.05
2023-02-13T11:16:15.274Z,97770.22
2023-02-13T11:18:46.243Z,97774.00
2023-02-13T11:21:50.548Z,97773.73
2023-02-13T11:24:22.865Z,97773.97
2023-02-13T11:27:02.170Z,97771.24
2023-02-13T11:29:32.887Z,97767.97
2023-02-13T11:32:30.452Z,97767.97
2023-02-13T11:35:01.748Z,97761.39
2023-02-13T11:37:32.766Z,97761.11
2023-02-13T11:40:23.529Z,97758.63
2023-02-13T11:42:53.476Z,97753.95
2023-02-13T11:45:26.978Z,97764.86
2023-02-13T11:47:59.245Z,97767.55
2023-02-13T11:50:31.615Z,97776.02
2023-02-13T11:53:09.362Z,97768.16
2023-02-13T11:55:43.502Z,97770.66
2023-02-13T11:58:20.261Z,97788.68
2023-02-13T12:00:56.630Z,97789.84
2023-02-13T12:03:34.218Z,97794.33
2023-02-13T12:06:14.102Z,97783.53
2023-02-13T12:08:49.548Z,97781.73
2023-02-13T12:11:27.606Z,97798.13
2023-02-13T12:13:58.910Z,97809.96
2023-02-13T12:16:46.478Z,97818.52
2023-02-13T12:19:19.347Z,97801.17
2023-02-13T12:21:54.607Z,97810.00
2023-02-13T12:24:35.938Z,97808.39
2023-02-13T12:27:24.902Z,97813.92
2023-02-13T12:30:21.363Z,97820.84
2023-02-13T12:33:03.898Z,97810.28
2023-02-13T12:35:45.415Z,97821.02
2023-02-13T12:38:30.749Z,97809.12
2023-02-13T12:41:11.110Z,97809.22
2023-02-13T12:44:06.309Z,97814.19
2023-02-13T12:47:10.314Z,97807.11
2023-02-13T12:50:00.129Z,97819.23
2023-02-13T12:52:47.931Z,97826.09
2023-02-13T12:55:40.037Z,97822.34
2023-02-13T12:58:19.401Z,97818.57
2023-02-13T13:01:13.054Z,97820.53
2023-02-13T13:03:55.961Z,97821.09
2023-02-13T13:06:34.582Z,97825.25
2023-02-13T13:09:16.432Z,97833.22
2023-02-13T13:12:18.949Z,97841.16
2023-02-13T13:15:03.000Z,97829.45
2023-02-13T13:17:35.586Z,97837.42
2023-02-13T13:20:19.396Z,97837.47
2023-02-13T13:22:54.779Z,97834.23
2023-02-13T13:25:44.020Z,97833.19
2023-02-13T13:28:20.099Z,97831.32
2023-02-13T13:31:01.313Z,97835.70
2023-02-13T13:33:31.775Z,97840.95
2023-02-13T13:36:25.453Z,97845.34
2023-02-13T13:39:06.450Z,97851.91
2023-02-13T13:41:58.523Z,97850.31
2023-02-13T13:44:46.122Z,97860.99
2023-02-13T13:47:27.875Z,97859.94
2023-02-13T13:49:58.414Z,97865.97
2023-02-13T13:52:38.147Z,97867.66
2023-02-13T13:55:08.540Z,97873.14
2023-02-13T13:57:47.447Z,97882.75
2023-02-13T14:00:21.098Z,97878.11
2023-02-13T14:03:22.007Z,97887.42
2023-02-13T14:06:03.322Z,97884.70
2023-02-13T14:08:50.028Z,97885.02
2023-02-13T14:11:32.808Z,97895.16
2023-02-13T14:14:03.377Z,97895.19
2023-02-13T14:16:47.986Z,97900.97
2023-02-13T14:19:43.387Z,97901.84
2023-02-13T14:22:47.782Z,97903.73
2023-02-13T14:25:02.831Z,97914.72
2023-02-13T14:27:46.628Z,97913.11
2023-02-13T14:30:25.980Z,97908.17
2023-02-13T14:33:04.588Z,97913.41
2023-02-13T14:35:41.205Z,97908.77
2023-02-13T14:38:12.533Z,97905.78
2023-02-13T14:40:57.452Z,97911.80
2023-02-13T14:43:46.015Z,97920.84
2023-02-13T14:46:28.847Z,97915.61
2023-02-13T14:49:14.304Z,97923.55
2023-02-13T14:51:56.506Z,97937.23
2023-02-13T14:57:56.128Z,97942.13
2023-02-13T15:00:48.713Z,97934.19
2023-02-13T15:03:35.106Z,97937.44
2023-02-13T15:06:23.265Z,97939.08
2023-02-13T15:09:22.067Z,97934.68
2023-02-13T15:11:43.214Z,97932.48
2023-02-13T15:14:24.960Z,97933.31
2023-02-13T15:17:02.951Z,97932.74
2023-02-13T15:19:33.250Z,97934.91
2023-02-13T15:22:05.782Z,97934.64
2023-02-13T15:24:50.334Z,97931.61
2023-02-13T15:27:34.720Z,97931.31
2023-02-13T15:30:07.769Z,97927.19
2023-02-13T15:32:38.317Z,97923.33
2023-02-13T15:35:28.628Z,97921.13
2023-02-13T15:38:00.956Z,97902.70
2023-02-13T15:40:36.607Z,97902.70
2023-02-13T15:43:09.127Z,97924.11
2023-02-13T15:45:39.948Z,97922.44
2023-02-13T15:48:18.460Z,97919.17
2023-02-13T15:50:48.865Z,97914.77
2023-02-13T15:53:19.341Z,97915.05
2023-02-13T15:56:00.904Z,97923.23
2023-02-13T15:58:33.741Z,97918.56
2023-02-13T16:01:09.007Z,97920.48
2023-02-13T16:03:42.633Z,97910.06
2023-02-13T16:06:17.879Z,97914.97
2023-02-13T16:08:49.760Z,97916.89
2023-02-13T16:11:21.633Z,97909.75
2023-02-13T16:14:19.282Z,97906.48
2023-02-13T16:16:53.251Z,97903.98
2023-02-13T16:19:25.999Z,97910.26
2023-02-13T16:22:00.289Z,97913.82
2023-02-13T16:24:33.611Z,97913.52
2023-02-13T16:27:12.200Z,97911.59
2023-02-13T16:29:42.435Z,97906.39
2023-02-13T16:32:18.729Z,97911.30
2023-02-13T16:34:48.801Z,97910.48
2023-02-13T16:37:35.015Z,97915.15
2023-02-13T16:40:27.164Z,97909.42
2023-02-13T16:43:00.279Z,97905.64
2023-02-13T16:45:30.835Z,97904.56
2023-02-13T16:48:06.491Z,97909.25
2023-02-13T16:50:37.106Z,97905.44
2023-02-13T16:53:07.164Z,97906.27
2023-02-13T16:55:47.223Z,97900.02
2023-02-13T16:58:19.947Z,97897.30
2023-02-13T17:00:55.982Z,97894.59
2023-02-13T17:03:30.219Z,97899.80
2023-02-13T17:06:03.201Z,97896.28
2023-02-13T17:08:34.486Z,97894.96
2023-02-13T17:11:09.236Z,97896.88
2023-02-13T17:13:39.172Z,97899.11
2023-02-13T17:16:10.591Z,97888.45
2023-02-13T17:18:41.899Z,97895.30
2023-02-13T17:21:16.415Z,97880.22
2023-02-13T17:23:49.189Z,97879.67
2023-02-13T17:26:22.631Z,97868.16
2023-02-13T17:28:52.884Z,97865.16
2023-02-13T17:31:24.595Z,97862.97
2023-02-13T17:34:29.038Z,97861.05
2023-02-13T17:36:29.013Z,97853.09
2023-02-13T17:39:01.706Z,97852.83
2023-02-13T17:41:41.079Z,97845.17
2023-02-13T17:44:21.927Z,97841.31
2023-02-13T17:46:51.656Z,97842.41
2023-02-13T17:49:21.757Z,97836.39
2023-02-13T17:51:51.655Z,97831.72
2023-02-13T17:54:24.126Z,97831.17
2023-02-13T17:56:57.125Z,97822.40
2023-02-13T17:59:30.039Z,97812.52
2023-02-13T18:02:03.199Z,97801.58
2023-02-13T18:04:33.442Z,97803.23
2023-02-13T18:07:03.634Z,97794.73
2023-02-13T18:09:54.238Z,97793.36
2023-02-13T18:12:25.201Z,97786.80
2023-02-13T18:14:55.104Z,97768.20
2023-02-13T18:17:27.166Z,97768.20
2023-02-13T18:19:58.712Z,97770.64
2023-02-13T18:22:28.741Z,97777.22
2023-02-13T18:24:58.584Z,97776.95
2023-02-13T18:27:28.918Z,97769.55
2023-02-13T18:30:00.310Z,97764.07
2023-02-13T18:32:30.375Z,97759.16
2023-02-13T18:35:00.309Z,97750.64
2023-02-13T18:37:33.023Z,97746.83
2023-02-13T18:40:02.888Z,97732.30
2023-02-13T18:42:32.717Z,97732.30
2023-02-13T18:45:02.648Z,97710.70
2023-02-13T18:47:32.450Z,97697.02
2023-02-13T18:50:02.405Z,97685.81
2023-02-13T18:52:32.320Z,97669.66
2023-02-13T18:55:06.571Z,97665.00
2023-02-13T18:57:36.480Z,97657.34
2023-02-13T19:00:07.878Z,97652.42
2023-02-13T19:02:37.775Z,97649.40
2023-02-13T19:05:07.872Z,97641.48
2023-02-13T19:07:37.822Z,97637.92
2023-02-13T19:10:08.458Z,97634.64
2023-02-13T19:12:38.331Z,97626.14
2023-02-13T19:15:08.476Z,97619.85
2023-02-13T19:17:39.062Z,97621.77
2023-02-13T19:20:09.862Z,97618.77
2023-02-13T19:22:40.603Z,97610.02
2023-02-13T19:25:10.674Z,97599.88
2023-02-13T19:27:40.497Z,97578.00
2023-02-13T19:30:13.194Z,97576.63
2023-02-13T19:32:44.124Z,97582.10
2023-02-13T19:35:15.063Z,97570.90
2023-02-13T19:37:45.188Z,97559.14
2023-02-13T19:40:18.908Z,97557.77
2023-02-13T19:42:55.607Z,97554.19
2023-02-13T19:45:25.640Z,97538.08
2023-02-13T19:47:55.927Z,97533.68
2023-02-13T19:50:25.787Z,97521.92
2023-02-13T19:52:55.618Z,97512.09
2023-02-13T19:55:26.437Z,97501.15
2023-02-13T19:57:56.281Z,97490.21
2023-02-13T20:00:26.126Z,97486.11
2023-02-13T20:02:57.277Z,97484.74
2023-02-13T20:05:27.157Z,97478.98
2023-02-13T20:07:57.033Z,97470.25
2023-02-13T20:10:26.917Z,97466.15
2023-02-13T20:12:56.894Z,97462.56
2023-02-13T20:15:27.585Z,97461.20
2023-02-13T20:17:57.424Z,97464.48
2023-02-13T20:20:28.857Z,97450.81
2023-02-13T20:22:58.761Z,97444.53
2023-02-13T20:25:29.986Z,97440.42
2023-02-13T20:28:01.209Z,97431.41
2023-02-13T20:30:31.183Z,97415.81
2023-02-13T20:33:01.057Z,97416.63
2023-02-13T20:35:31.002Z,97406.50
2023-02-13T20:38:00.837Z,97405.69
2023-02-13T20:40:30.698Z,97401.03
2023-02-13T20:43:00.545Z,97387.91
2023-02-13T20:45:30.478Z,97377.79
2023-02-13T20:48:00.368Z,97373.69
2023-02-13T20:50:30.276Z,97381.08
2023-02-13T20:53:00.395Z,97381.08
2023-02-13T20:55:30.426Z,97367.41
2023-02-13T20:58:00.250Z,97358.38
2023-02-13T21:00:30.333Z,97349.92
2023-02-13T21:03:02.458Z,97349.36
2023-02-13T21:05:32.337Z,97351.55
2023-02-13T21:08:02.368Z,97346.63
2023-02-13T21:10:32.305Z,97337.61
2023-02-13T21:13:02.257Z,97336.24
2023-02-13T21:15:32.164Z,97337.88
2023-02-13T21:18:03.442Z,97321.47
2023-02-13T21:20:33.540Z,97305.86
2023-02-13T21:23:03.713Z,97308.89
2023-02-13T21:25:33.654Z,97306.16
2023-02-13T21:28:03.497Z,97305.60
2023-02-13T21:30:33.368Z,97293.00
2023-02-13T21:33:03.308Z,97295.73
2023-02-13T21:35:35.601Z,97296.84
2023-02-13T21:38:05.464Z,97302.87
2023-02-13T21:40:35.426Z,97299.02
2023-02-13T21:43:05.261Z,97303.13
2023-02-13T21:45:35.556Z,97295.48
2023-02-13T21:48:05.630Z,97292.48
2023-02-13T21:50:35.541Z,97289.74
2023-02-13T21:53:05.407Z,97284.80
2023-02-13T21:55:35.427Z,97276.88
2023-02-13T21:58:05.273Z,97271.13
2023-02-13T22:00:37.929Z,97261.55
2023-02-13T22:03:07.932Z,97259.38
2023-02-13T22:05:37.888Z,97257.45
2023-02-13T22:08:13.887Z,97248.42
2023-02-13T22:10:44.463Z,97243.25
2023-02-13T22:13:15.464Z,97244.61
2023-02-13T22:15:46.531Z,97251.71
2023-02-13T22:18:16.622Z,97242.41
2023-02-13T22:20:46.546Z,97239.67
2023-02-13T22:23:16.536Z,97238.30
2023-02-13T22:25:52.653Z,97234.20
2023-02-13T22:28:22.516Z,97224.37
2023-02-13T22:30:53.174Z,97220.81
2023-02-13T22:33:23.210Z,97215.90
2023-02-13T22:35:53.079Z,97218.63
2023-02-13T22:38:23.014Z,97212.88
2023-02-13T22:40:52.929Z,97218.34
2023-02-13T22:43:22.738Z,97220.00
2023-02-13T22:45:54.797Z,97211.51
2023-02-13T22:48:24.782Z,97204.67
2023-02-13T22:50:55.464Z,97206.85
2023-02-13T22:53:25.317Z,97200.57
2023-02-13T22:55:55.238Z,97199.20
2023-02-13T22:58:25.105Z,97203.86
2023-02-13T23:00:54.957Z,97194.55
2023-02-13T23:03:25.258Z,97194.03
2023-02-13T23:05:55.132Z,97191.01
2023-02-13T23:08:25.021Z,97191.30
2023-02-13T23:11:12.508Z,97184.98
2023-02-13T23:13:46.679Z,97179.25
2023-02-13T23:16:16.880Z,97173.53
2023-02-13T23:18:46.940Z,97177.89
2023-02-13T23:21:16.822Z,97181.98
2023-02-13T23:23:46.791Z,97184.47
2023-02-13T23:26:16.756Z,97178.70
2023-02-13T23:28:50.220Z,97173.23
2023-02-13T23:31:20.121Z,97168.06
2023-02-13T23:33:50.173Z,97177.08
2023-02-13T23:36:20.056Z,97199.52
2023-02-13T23:38:49.899Z,97179.05
2023-02-13T23:41:19.820Z,97204.44
2023-02-13T23:43:49.627Z,97201.70
2023-02-13T23:46:19.529Z,97198.71
2023-02-13T23:48:49.586Z,97191.03
2023-02-13T23:51:21.844Z,97179.84
2023-02-13T23:53:52.944Z,97177.91
2023-02-13T23:56:23.260Z,97177.66
2023-02-13T23:58:53.121Z,97179.02
